createdAt,value
2023-01-15T00:01:49.025Z,9.30
2023-01-15T00:04:15.796Z,9.30
2023-01-15T00:06:42.896Z,9.30
2023-01-15T00:09:14.325Z,9.32
2023-01-15T00:11:42.237Z,9.35
2023-01-15T00:14:09.288Z,9.43
2023-01-15T00:16:36.252Z,9.48
2023-01-15T00:19:04.497Z,9.50
2023-01-15T00:21:31.594Z,9.51
2023-01-15T00:24:16.907Z,9.55
2023-01-15T00:27:02.358Z,9.57
2023-01-15T00:29:28.987Z,9.57
2023-01-15T00:32:02.397Z,9.54
2023-01-15T00:34:30.087Z,9.56
2023-01-15T00:36:57.097Z,9.55
2023-01-15T00:39:26.911Z,9.54
2023-01-15T00:41:54.549Z,9.52
2023-01-15T00:44:21.947Z,9.52
2023-01-15T00:46:48.934Z,9.49
2023-01-15T00:49:15.690Z,9.51
2023-01-15T00:51:42.265Z,9.49
2023-01-15T00:54:09.004Z,9.49
2023-01-15T00:56:36.379Z,9.47
2023-01-15T00:59:04.875Z,9.45
2023-01-15T01:01:32.020Z,9.37
2023-01-15T01:03:58.734Z,9.34
2023-01-15T01:06:25.936Z,9.35
2023-01-15T01:08:52.508Z,9.29
2023-01-15T01:11:21.383Z,9.19
2023-01-15T01:13:49.108Z,9.06
2023-01-15T01:16:33.613Z,8.90
2023-01-15T01:19:06.083Z,8.79
2023-01-15T01:21:33.050Z,8.67
2023-01-15T01:24:00.431Z,8.60
2023-01-15T01:26:28.570Z,8.48
2023-01-15T01:28:55.406Z,8.42
2023-01-15T01:31:22.238Z,8.37
2023-01-15T01:33:52.897Z,8.33
2023-01-15T01:36:21.197Z,8.31
2023-01-15T01:38:49.871Z,8.29
2023-01-15T01:41:17.794Z,8.25
2023-01-15T01:44:32.271Z,8.21
2023-01-15T01:47:01.379Z,8.22
2023-01-15T01:49:27.998Z,8.17
2023-01-15T01:52:07.483Z,8.09
2023-01-15T01:54:36.804Z,8.08
2023-01-15T01:57:05.307Z,8.00
2023-01-15T01:59:33.011Z,7.94
2023-01-15T02:02:00.730Z,7.89
2023-01-15T02:04:29.612Z,7.85
2023-01-15T02:06:58.200Z,7.83
2023-01-15T02:09:24.762Z,7.80
2023-01-15T02:11:57.086Z,7.78
2023-01-15T02:14:37.216Z,7.75
2023-01-15T02:17:26.897Z,7.72
2023-01-15T02:20:22.445Z,7.68
2023-01-15T02:22:58.804Z,7.69
2023-01-15T02:25:44.405Z,7.70
2023-01-15T02:28:30.157Z,7.65
2023-01-15T02:31:21.414Z,7.60
2023-01-15T02:33:56.847Z,7.62
2023-01-15T02:36:26.854Z,7.62
2023-01-15T02:38:58.568Z,7.60
2023-01-15T02:41:32.031Z,7.57
2023-01-15T02:44:01.643Z,7.58
2023-01-15T02:46:32.885Z,7.56
2023-01-15T02:49:03.325Z,7.56
2023-01-15T02:51:39.049Z,7.60
2023-01-15T02:54:12.174Z,7.62
2023-01-15T02:56:42.533Z,7.61
2023-01-15T02:59:14.191Z,7.57
2023-01-15T03:01:50.269Z,7.54
2023-01-15T03:04:32.531Z,7.56
2023-01-15T03:07:17.770Z,7.53
2023-01-15T03:09:45.167Z,7.55
2023-01-15T03:12:55.369Z,7.53
2023-01-15T03:15:42.703Z,7.52
2023-01-15T03:18:13.394Z,7.50
2023-01-15T03:20:45.954Z,7.48
2023-01-15T03:23:16.549Z,7.46
2023-01-15T03:25:48.634Z,7.37
2023-01-15T03:28:22.241Z,7.36
2023-01-15T03:30:48.895Z,7.36
2023-01-15T03:33:15.480Z,7.38
2023-01-15T03:35:52.972Z,7.39
2023-01-15T03:38:23.508Z,7.36
2023-01-15T03:40:59.312Z,7.35
2023-01-15T03:44:04.574Z,7.27
2023-01-15T03:46:56.086Z,7.20
2023-01-15T03:49:51.567Z,7.15
2023-01-15T03:52:47.523Z,7.14
2023-01-15T03:55:14.141Z,7.09
2023-01-15T03:57:55.557Z,7.05
2023-01-15T04:00:28.271Z,7.02
2023-01-15T04:02:57.510Z,6.97
2023-01-15T04:05:26.434Z,6.98
2023-01-15T04:07:54.774Z,6.99
2023-01-15T04:10:21.374Z,7.00
2023-01-15T04:12:47.948Z,6.99
2023-01-15T04:15:14.513Z,6.98
2023-01-15T04:17:41.163Z,7.01
2023-01-15T04:20:08.788Z,6.98
2023-01-15T04:22:36.184Z,6.98
2023-01-15T04:25:04.422Z,6.97
2023-01-15T04:27:31.076Z,6.98
2023-01-15T04:29:57.712Z,6.96
2023-01-15T04:32:24.592Z,6.94
2023-01-15T04:34:51.229Z,6.93
2023-01-15T04:37:18.456Z,6.92
2023-01-15T04:39:46.579Z,6.91
2023-01-15T04:42:33.135Z,6.88
2023-01-15T04:44:59.963Z,6.84
2023-01-15T04:47:26.625Z,6.84
2023-01-15T04:49:53.224Z,6.83
2023-01-15T04:52:19.779Z,6.85
2023-01-15T04:54:46.431Z,6.88
2023-01-15T04:57:13.053Z,6.91
2023-01-15T04:59:39.637Z,6.91
2023-01-15T05:02:07.023Z,6.91
2023-01-15T05:04:34.711Z,6.90
2023-01-15T05:07:05.194Z,6.90
2023-01-15T05:09:32.320Z,6.90
2023-01-15T05:11:58.921Z,6.92
2023-01-15T05:14:25.516Z,6.93
2023-01-15T05:16:52.187Z,6.96
2023-01-15T05:19:18.826Z,6.96
2023-01-15T05:21:45.668Z,7.00
2023-01-15T05:24:17.272Z,6.98
2023-01-15T05:26:44.688Z,7.00
2023-01-15T05:29:12.322Z,7.01
2023-01-15T05:31:39.497Z,7.04
2023-01-15T05:34:06.161Z,7.05
2023-01-15T05:36:32.768Z,7.08
2023-01-15T05:39:01.973Z,7.10
2023-01-15T05:41:48.986Z,7.08
2023-01-15T05:44:25.054Z,7.06
2023-01-15T05:46:54.948Z,7.07
2023-01-15T05:49:24.541Z,7.07
2023-01-15T05:51:52.331Z,7.08
2023-01-15T05:54:22.435Z,7.04
2023-01-15T05:56:49.344Z,7.06
2023-01-15T05:59:18.621Z,7.06
2023-01-15T06:01:45.515Z,7.47
2023-01-15T06:04:17.674Z,7.40
2023-01-15T06:06:44.420Z,7.28
2023-01-15T06:09:11.009Z,7.14
2023-01-15T06:11:37.640Z,7.06
2023-01-15T06:14:04.856Z,7.02
2023-01-15T06:16:32.430Z,6.98
2023-01-15T06:19:04.435Z,6.93
2023-01-15T06:21:31.817Z,6.95
2023-01-15T06:23:58.485Z,6.99
2023-01-15T06:26:25.696Z,7.11
2023-01-15T06:28:52.326Z,7.23
2023-01-15T06:31:21.097Z,7.28
2023-01-15T06:33:47.790Z,7.42
2023-01-15T06:36:17.904Z,7.43
2023-01-15T06:38:45.193Z,7.24
2023-01-15T06:41:42.658Z,7.08
2023-01-15T06:44:33.787Z,6.96
2023-01-15T06:47:23.433Z,6.90
2023-01-15T06:49:55.019Z,6.89
2023-01-15T06:52:23.215Z,6.87
2023-01-15T06:54:50.023Z,6.88
2023-01-15T06:57:18.880Z,6.87
2023-01-15T06:59:45.682Z,6.83
2023-01-15T07:02:12.420Z,6.86
2023-01-15T07:04:38.961Z,6.83
2023-01-15T07:07:05.610Z,6.84
2023-01-15T07:09:32.209Z,6.86
2023-01-15T07:11:58.859Z,6.85
2023-01-15T07:14:28.139Z,6.84
2023-01-15T07:16:55.698Z,6.83
2023-01-15T07:19:22.377Z,6.85
2023-01-15T07:21:49.072Z,6.87
2023-01-15T07:24:16.945Z,6.89
2023-01-15T07:26:43.955Z,6.87
2023-01-15T07:29:10.660Z,6.84
2023-01-15T07:31:38.071Z,6.81
2023-01-15T07:34:04.983Z,6.79
2023-01-15T07:36:31.586Z,6.84
2023-01-15T07:38:58.214Z,6.83
2023-01-15T07:41:43.290Z,6.86
2023-01-15T07:44:30.087Z,6.83
2023-01-15T07:47:15.497Z,6.83
2023-01-15T07:49:45.634Z,6.79
2023-01-15T07:52:13.622Z,6.81
2023-01-15T07:54:40.317Z,6.86
2023-01-15T07:57:07.752Z,6.85
2023-01-15T07:59:34.669Z,6.85
2023-01-15T08:02:01.337Z,6.84
2023-01-15T08:04:28.124Z,6.81
2023-01-15T08:06:54.756Z,6.83
2023-01-15T08:09:21.370Z,6.85
2023-01-15T08:12:06.408Z,6.87
2023-01-15T08:14:51.228Z,6.88
2023-01-15T08:17:17.803Z,6.89
2023-01-15T08:19:44.416Z,6.90
2023-01-15T08:22:11.511Z,6.92
2023-01-15T08:24:38.591Z,6.93
2023-01-15T08:27:05.872Z,6.97
2023-01-15T08:29:32.646Z,6.96
2023-01-15T08:31:59.240Z,6.96
2023-01-15T08:34:25.976Z,6.96
2023-01-15T08:36:57.458Z,6.96
2023-01-15T08:39:24.079Z,6.95
2023-01-15T08:41:50.754Z,6.98
2023-01-15T08:44:17.456Z,7.01
2023-01-15T08:46:44.182Z,6.97
2023-01-15T08:49:11.074Z,6.96
2023-01-15T08:51:37.624Z,6.95
2023-01-15T08:54:04.346Z,7.01
2023-01-15T08:56:30.999Z,7.03
2023-01-15T08:58:57.635Z,7.04
2023-01-15T09:01:24.310Z,7.06
2023-01-15T09:03:51.008Z,7.10
2023-01-15T09:06:17.677Z,7.11
2023-01-15T09:08:44.333Z,7.12
2023-01-15T09:11:13.323Z,7.11
2023-01-15T09:13:40.031Z,7.09
2023-01-15T09:16:09.968Z,7.10
2023-01-15T09:18:39.352Z,7.11
2023-01-15T09:21:06.704Z,7.13
2023-01-15T09:23:33.851Z,7.13
2023-01-15T09:26:06.584Z,7.10
2023-01-15T09:28:34.527Z,7.15
2023-01-15T09:31:01.965Z,7.11
2023-01-15T09:33:28.632Z,7.11
2023-01-15T09:35:55.229Z,7.14
2023-01-15T09:38:22.196Z,7.13
2023-01-15T09:40:56.713Z,7.12
2023-01-15T09:43:50.603Z,7.12
2023-01-15T09:46:25.361Z,7.11
2023-01-15T09:49:30.442Z,7.09
2023-01-15T09:52:28.631Z,7.08
2023-01-15T09:55:15.447Z,7.15
2023-01-15T09:57:43.038Z,7.21
2023-01-15T10:00:17.586Z,7.30
2023-01-15T10:02:53.312Z,7.38
2023-01-15T10:05:28.159Z,7.47
2023-01-15T10:08:11.249Z,7.55
2023-01-15T10:10:47.686Z,7.56
2023-01-15T10:13:30.023Z,7.56
2023-01-15T10:15:58.468Z,7.60
2023-01-15T10:18:27.181Z,7.59
2023-01-15T10:21:12.332Z,7.60
2023-01-15T10:24:03.027Z,7.59
2023-01-15T10:26:35.714Z,7.63
2023-01-15T10:29:04.976Z,7.65
2023-01-15T10:31:43.553Z,7.64
2023-01-15T10:34:42.567Z,7.60
2023-01-15T10:37:17.387Z,7.58
2023-01-15T10:39:56.162Z,7.52
2023-01-15T10:43:00.414Z,7.52
2023-01-15T10:45:31.425Z,7.54
2023-01-15T10:48:04.679Z,7.56
2023-01-15T10:50:32.939Z,7.56
2023-01-15T10:53:02.563Z,7.58
2023-01-15T10:55:38.424Z,7.59
2023-01-15T10:58:26.163Z,7.60
2023-01-15T11:01:00.569Z,7.64
2023-01-15T11:03:37.159Z,7.64
2023-01-15T11:06:05.428Z,7.68
2023-01-15T11:09:08.534Z,7.76
2023-01-15T11:11:45.355Z,7.85
2023-01-15T11:14:30.220Z,7.92
2023-01-15T11:17:08.861Z,7.91
2023-01-15T11:19:42.190Z,7.96
2023-01-15T11:22:14.072Z,7.97
2023-01-15T11:24:51.806Z,7.94
2023-01-15T11:27:22.812Z,7.89
2023-01-15T11:29:55.470Z,7.88
2023-01-15T11:32:30.186Z,7.86
2023-01-15T11:35:18.434Z,7.94
2023-01-15T11:37:45.120Z,8.01
2023-01-15T11:40:20.187Z,8.05
2023-01-15T11:43:06.848Z,8.12
2023-01-15T11:45:52.373Z,8.14
2023-01-15T11:48:40.871Z,8.20
2023-01-15T11:51:10.845Z,8.24
2023-01-15T11:53:46.363Z,8.24
2023-01-15T11:56:42.059Z,8.13
2023-01-15T11:59:19.037Z,8.13
2023-01-15T12:02:00.636Z,8.17
2023-01-15T12:04:30.758Z,8.20
2023-01-15T12:06:58.499Z,8.25
2023-01-15T12:09:40.155Z,8.31
2023-01-15T12:12:22.130Z,8.35
2023-01-15T12:15:10.966Z,8.38
2023-01-15T12:18:00.809Z,8.43
2023-01-15T12:20:39.045Z,8.47
2023-01-15T12:23:25.791Z,8.44
2023-01-15T12:26:17.486Z,8.42
2023-01-15T12:29:07.235Z,8.35
2023-01-15T12:31:43.360Z,8.32
2023-01-15T12:34:48.269Z,8.33
2023-01-15T12:37:29.796Z,8.36
2023-01-15T12:40:14.642Z,8.31
2023-01-15T12:43:02.527Z,8.29
2023-01-15T12:45:34.738Z,8.25
2023-01-15T12:48:07.481Z,8.22
2023-01-15T12:50:46.101Z,8.16
2023-01-15T12:53:27.426Z,8.14
2023-01-15T12:56:12.417Z,8.12
2023-01-15T12:58:42.662Z,8.13
2023-01-15T13:01:24.439Z,8.19
2023-01-15T13:04:05.441Z,8.29
2023-01-15T13:06:33.006Z,8.37
2023-01-15T13:09:11.133Z,8.41
2023-01-15T13:11:37.807Z,8.49
2023-01-15T13:14:19.825Z,8.49
2023-01-15T13:17:05.702Z,8.48
2023-01-15T13:19:35.013Z,8.50
2023-01-15T13:22:16.399Z,8.51
2023-01-15T13:25:13.835Z,8.45
2023-01-15T13:27:59.409Z,8.39
2023-01-15T13:30:38.321Z,8.42
2023-01-15T13:33:43.537Z,8.33
2023-01-15T13:36:45.457Z,8.24
2023-01-15T13:39:23.063Z,8.25
2023-01-15T13:42:12.214Z,8.20
2023-01-15T13:44:51.082Z,8.16
2023-01-15T13:47:27.304Z,8.12
2023-01-15T13:49:59.759Z,8.11
2023-01-15T13:52:29.922Z,8.07
2023-01-15T13:55:01.514Z,8.00
2023-01-15T13:57:37.406Z,7.96
2023-01-15T14:00:06.632Z,7.94
2023-01-15T14:02:37.346Z,7.91
2023-01-15T14:05:35.699Z,7.86
2023-01-15T14:08:14.679Z,7.89
2023-01-15T14:10:41.407Z,7.91
2023-01-15T14:13:33.078Z,7.94
2023-01-15T14:16:24.337Z,7.99
2023-01-15T14:18:53.882Z,8.00
2023-01-15T14:21:40.796Z,7.93
2023-01-15T14:24:19.525Z,7.86
2023-01-15T14:27:08.735Z,7.65
2023-01-15T14:29:59.224Z,7.40
2023-01-15T14:32:40.112Z,7.32
2023-01-15T14:35:19.258Z,7.32
2023-01-15T14:37:54.383Z,7.34
2023-01-15T14:40:32.083Z,7.35
2023-01-15T14:43:04.694Z,7.42
2023-01-15T14:45:48.020Z,7.42
2023-01-15T14:48:32.862Z,7.37
2023-01-15T14:51:20.441Z,7.32
2023-01-15T14:53:59.100Z,7.29
2023-01-15T14:56:36.361Z,7.28
2023-01-15T14:59:24.423Z,7.30
2023-01-15T15:02:17.365Z,7.32
2023-01-15T15:04:49.048Z,7.34
2023-01-15T15:07:18.871Z,7.36
2023-01-15T15:10:11.699Z,7.35
2023-01-15T15:12:40.981Z,7.29
2023-01-15T15:15:16.658Z,7.24
2023-01-15T15:18:12.693Z,7.26
2023-01-15T15:20:42.074Z,7.28
2023-01-15T15:23:26.000Z,7.27
2023-01-15T15:25:56.839Z,7.30
2023-01-15T15:28:23.869Z,7.27
2023-01-15T15:30:51.340Z,7.33
2023-01-15T15:33:27.268Z,7.35
2023-01-15T15:35:57.388Z,7.39
2023-01-15T15:38:25.875Z,7.40
2023-01-15T15:40:59.847Z,7.37
2023-01-15T15:44:03.975Z,7.38
2023-01-15T15:46:51.319Z,7.39
2023-01-15T15:49:20.170Z,7.36
2023-01-15T15:51:52.335Z,7.35
2023-01-15T15:54:26.457Z,7.39
2023-01-15T15:56:56.016Z,7.39
2023-01-15T15:59:37.059Z,7.36
2023-01-15T16:02:28.382Z,7.34
2023-01-15T16:04:59.918Z,7.30
2023-01-15T16:07:29.757Z,7.30
2023-01-15T16:10:19.561Z,7.29
2023-01-15T16:12:50.870Z,7.29
2023-01-15T16:15:21.538Z,7.29
2023-01-15T16:17:49.659Z,7.27
2023-01-15T16:20:19.049Z,7.28
2023-01-15T16:23:01.496Z,7.25
2023-01-15T16:25:41.868Z,7.29
2023-01-15T16:28:25.333Z,7.35
2023-01-15T16:31:02.157Z,7.39
2023-01-15T16:33:29.683Z,7.44
2023-01-15T16:36:04.602Z,7.46
2023-01-15T16:38:33.845Z,7.48
2023-01-15T16:41:02.019Z,7.48
2023-01-15T16:43:30.781Z,7.50
2023-01-15T16:46:17.509Z,7.49
2023-01-15T16:48:48.471Z,7.51
2023-01-15T16:51:31.151Z,7.48
2023-01-15T16:54:03.519Z,7.51
2023-01-15T16:56:38.773Z,7.49
2023-01-15T16:59:15.886Z,7.49
2023-01-15T17:01:46.227Z,7.50
2023-01-15T17:04:27.871Z,7.48
2023-01-15T17:07:05.234Z,7.48
2023-01-15T17:09:35.523Z,7.47
2023-01-15T17:12:28.166Z,7.45
2023-01-15T17:14:55.003Z,7.47
2023-01-15T17:17:21.631Z,7.48
2023-01-15T17:19:52.269Z,7.50
2023-01-15T17:22:30.836Z,7.51
2023-01-15T17:24:59.642Z,7.51
2023-01-15T17:27:28.124Z,7.51
2023-01-15T17:29:55.606Z,7.51
2023-01-15T17:32:36.170Z,7.49
2023-01-15T17:35:02.768Z,7.50
2023-01-15T17:37:29.324Z,7.49
2023-01-15T17:39:55.999Z,7.52
2023-01-15T17:42:22.597Z,7.51
2023-01-15T17:44:49.131Z,7.49
2023-01-15T17:47:15.985Z,7.42
2023-01-15T17:49:42.594Z,7.37
2023-01-15T17:52:18.301Z,7.32
2023-01-15T17:55:03.622Z,7.28
2023-01-15T17:57:48.535Z,7.28
2023-01-15T18:00:33.958Z,7.23
2023-01-15T18:03:19.421Z,7.19
2023-01-15T18:05:49.258Z,7.16
2023-01-15T18:08:18.862Z,7.16
2023-01-15T18:10:45.469Z,7.15
2023-01-15T18:13:12.780Z,7.15
2023-01-15T18:15:39.448Z,7.16
2023-01-15T18:18:06.041Z,7.18
2023-01-15T18:20:33.030Z,7.18
2023-01-15T18:22:59.634Z,7.18
2023-01-15T18:25:26.321Z,7.20
2023-01-15T18:27:53.118Z,7.21
2023-01-15T18:30:20.071Z,7.23
2023-01-15T18:32:46.705Z,7.24
2023-01-15T18:35:14.775Z,7.28
2023-01-15T18:37:41.414Z,7.29
2023-01-15T18:40:09.217Z,7.25
2023-01-15T18:42:57.311Z,7.19
2023-01-15T18:45:43.756Z,7.11
2023-01-15T18:48:10.844Z,7.04
2023-01-15T18:50:37.537Z,7.00
2023-01-15T18:53:04.161Z,6.96
2023-01-15T18:55:30.776Z,6.91
2023-01-15T18:57:57.540Z,6.89
2023-01-15T19:00:24.947Z,6.89
2023-01-15T19:02:52.117Z,6.90
2023-01-15T19:05:19.172Z,6.90
2023-01-15T19:07:46.235Z,6.89
2023-01-15T19:10:14.072Z,6.87
2023-01-15T19:12:40.757Z,6.90
2023-01-15T19:15:27.011Z,6.90
2023-01-15T19:18:12.555Z,6.91
2023-01-15T19:20:39.484Z,6.91
2023-01-15T19:23:06.656Z,6.92
2023-01-15T19:25:37.395Z,6.95
2023-01-15T19:28:04.394Z,6.96
2023-01-15T19:30:32.410Z,6.96
2023-01-15T19:32:58.953Z,6.94
2023-01-15T19:35:25.732Z,6.97
2023-01-15T19:37:55.056Z,6.96
2023-01-15T19:40:22.421Z,6.97
2023-01-15T19:43:11.826Z,6.96
2023-01-15T19:45:59.724Z,6.95
2023-01-15T19:48:45.545Z,6.89
2023-01-15T19:51:13.710Z,6.89
2023-01-15T19:53:40.634Z,6.89
2023-01-15T19:56:08.086Z,6.91
2023-01-15T19:58:37.084Z,6.90
2023-01-15T20:01:04.358Z,6.91
2023-01-15T20:03:31.170Z,6.94
2023-01-15T20:05:58.045Z,6.98
2023-01-15T20:08:24.631Z,6.93
2023-01-15T20:10:51.497Z,6.85
2023-01-15T20:13:45.557Z,6.71
2023-01-15T20:16:17.993Z,6.63
2023-01-15T20:18:45.841Z,6.56
2023-01-15T20:21:14.764Z,6.50
2023-01-15T20:23:42.948Z,6.50
2023-01-15T20:26:13.243Z,6.49
2023-01-15T20:28:42.498Z,6.47
2023-01-15T20:31:17.420Z,6.45
2023-01-15T20:33:44.087Z,6.43
2023-01-15T20:36:10.783Z,6.41
2023-01-15T20:38:37.362Z,6.39
2023-01-15T20:41:27.346Z,6.36
2023-01-15T20:44:12.748Z,6.38
2023-01-15T20:46:39.487Z,6.40
2023-01-15T20:49:24.625Z,6.43
2023-01-15T20:51:52.854Z,6.50
2023-01-15T20:54:20.384Z,6.53
2023-01-15T20:56:47.130Z,6.56
2023-01-15T20:59:13.740Z,6.57
2023-01-15T21:01:42.927Z,6.57
2023-01-15T21:04:10.795Z,6.56
2023-01-15T21:06:37.428Z,6.57
2023-01-15T21:09:04.004Z,6.58
2023-01-15T21:11:30.620Z,6.61
2023-01-15T21:13:57.159Z,6.63
2023-01-15T21:16:23.774Z,6.69
2023-01-15T21:18:51.022Z,6.67
2023-01-15T21:21:19.609Z,6.70
2023-01-15T21:23:46.461Z,6.72
2023-01-15T21:26:14.811Z,6.77
2023-01-15T21:28:42.063Z,6.76
2023-01-15T21:31:09.831Z,6.75
2023-01-15T21:33:36.748Z,6.76
2023-01-15T21:36:07.646Z,6.75
2023-01-15T21:38:34.686Z,6.75
2023-01-15T21:41:09.962Z,6.73
2023-01-15T21:43:55.294Z,6.76
2023-01-15T21:46:23.314Z,6.80
2023-01-15T21:48:57.368Z,6.81
2023-01-15T21:51:25.452Z,6.82
2023-01-15T21:53:52.166Z,6.87
2023-01-15T21:56:18.725Z,6.89
2023-01-15T21:58:45.253Z,6.91
2023-01-15T22:01:14.503Z,6.92
2023-01-15T22:03:41.249Z,6.88
2023-01-15T22:06:09.803Z,6.94
2023-01-15T22:08:36.940Z,6.94
2023-01-15T22:11:05.703Z,6.96
2023-01-15T22:13:33.333Z,6.98
2023-01-15T22:16:00.417Z,6.96
2023-01-15T22:18:27.920Z,6.94
2023-01-15T22:20:59.113Z,6.93
2023-01-15T22:23:25.941Z,6.92
2023-01-15T22:25:52.751Z,6.93
2023-01-15T22:28:19.381Z,6.93
2023-01-15T22:30:46.366Z,6.93
2023-01-15T22:33:13.611Z,6.94
2023-01-15T22:35:40.221Z,6.92
2023-01-15T22:38:06.825Z,6.91
2023-01-15T22:40:33.414Z,6.86
2023-01-15T22:43:00.315Z,6.79
2023-01-15T22:45:27.037Z,6.74
2023-01-15T22:47:53.587Z,6.73
2023-01-15T22:50:20.302Z,6.72
2023-01-15T22:52:46.919Z,6.74
2023-01-15T22:55:14.348Z,6.74
2023-01-15T22:57:40.917Z,6.75
2023-01-15T23:00:08.263Z,6.74
2023-01-15T23:02:53.206Z,6.71
2023-01-15T23:05:19.879Z,6.72
2023-01-15T23:07:46.514Z,6.72
2023-01-15T23:10:13.984Z,6.75
2023-01-15T23:12:41.828Z,6.77
2023-01-15T23:15:13.208Z,6.79
2023-01-15T23:17:40.518Z,6.77
2023-01-15T23:20:08.491Z,6.76
2023-01-15T23:22:35.302Z,6.73
2023-01-15T23:25:02.014Z,6.75
2023-01-15T23:27:28.595Z,6.77
2023-01-15T23:29:55.174Z,6.78
2023-01-15T23:32:21.827Z,6.78
2023-01-15T23:34:48.394Z,6.79
2023-01-15T23:37:15.024Z,6.81
2023-01-15T23:39:41.810Z,6.84
2023-01-15T23:42:28.979Z,6.84
2023-01-15T23:45:13.771Z,6.87
2023-01-15T23:47:40.362Z,6.91
2023-01-15T23:50:07.593Z,6.93
2023-01-15T23:52:34.156Z,6.92
2023-01-15T23:55:00.717Z,6.91
2023-01-15T23:57:27.339Z,6.90
2023-01-15T23:59:53.863Z,6.90
